createdAt,value
2022-12-04T00:00:33.639Z,26.90
2022-12-04T00:03:18.555Z,23.70
2022-12-04T00:05:45.611Z,28.40
2022-12-04T00:08:12.624Z,29.70
2022-12-04T00:10:43.412Z,29.30
2022-12-04T00:13:10.789Z,28.20
2022-12-04T00:15:42.573Z,26.30
2022-12-04T00:18:09.608Z,28.30
2022-12-04T00:20:40.266Z,26.50
2022-12-04T00:23:07.319Z,29.40
2022-12-04T00:25:37.905Z,29.50
2022-12-04T00:28:08.620Z,26.50
2022-12-04T00:30:40.912Z,27.60
2022-12-04T00:33:07.856Z,28.00
2022-12-04T00:35:34.849Z,29.70
2022-12-04T00:38:02.636Z,28.50
2022-12-04T00:40:29.631Z,42.60
2022-12-04T00:42:56.625Z,32.30
2022-12-04T00:45:23.568Z,26.90
2022-12-04T00:47:50.527Z,28.30
2022-12-04T00:50:17.436Z,32.00
2022-12-04T00:52:44.317Z,24.80
2022-12-04T00:55:11.386Z,31.90
2022-12-04T00:57:38.337Z,31.20
2022-12-04T01:00:08.659Z,26.40
2022-12-04T01:02:35.890Z,25.60
2022-12-04T01:05:03.256Z,24.80
2022-12-04T01:07:30.232Z,27.10
2022-12-04T01:09:57.546Z,26.90
2022-12-04T01:12:24.789Z,32.10
2022-12-04T01:14:51.775Z,25.90
2022-12-04T01:17:19.228Z,30.90
2022-12-04T01:19:46.153Z,29.40
2022-12-04T01:22:13.053Z,23.90
2022-12-04T01:24:40.040Z,22.20
2022-12-04T01:27:07.098Z,26.40
2022-12-04T01:29:34.058Z,26.60
2022-12-04T01:32:01.361Z,30.90
2022-12-04T01:34:28.403Z,29.00
2022-12-04T01:36:55.299Z,27.40
2022-12-04T01:39:22.266Z,28.70
2022-12-04T01:41:49.251Z,27.30
2022-12-04T01:44:20.675Z,27.10
2022-12-04T01:46:51.894Z,27.70
2022-12-04T01:49:28.264Z,23.10
2022-12-04T01:52:00.570Z,23.60
2022-12-04T01:54:31.896Z,24.10
2022-12-04T01:57:07.376Z,28.10
2022-12-04T01:59:42.854Z,28.00
2022-12-04T02:02:14.081Z,27.30
2022-12-04T02:04:42.225Z,26.00
2022-12-04T02:07:09.343Z,25.30
2022-12-04T02:09:39.302Z,25.60
2022-12-04T02:14:39.273Z,25.00
2022-12-04T02:17:18.214Z,25.70
2022-12-04T02:20:06.584Z,28.40
2022-12-04T02:23:00.867Z,28.40
2022-12-04T02:25:42.643Z,27.60
2022-12-04T02:28:24.869Z,27.40
2022-12-04T02:30:57.513Z,29.20
2022-12-04T02:33:34.508Z,23.10
2022-12-04T02:36:07.333Z,27.50
2022-12-04T02:38:42.119Z,25.60
2022-12-04T02:41:17.953Z,23.20
2022-12-04T02:44:12.083Z,25.80
2022-12-04T02:46:47.526Z,28.60
2022-12-04T02:49:19.271Z,28.30
2022-12-04T02:51:48.175Z,27.60
2022-12-04T02:54:50.925Z,27.80
2022-12-04T02:57:30.941Z,27.30
2022-12-04T02:59:59.757Z,27.50
2022-12-04T03:02:49.257Z,26.00
2022-12-04T03:05:19.988Z,22.30
2022-12-04T03:07:53.701Z,21.10
2022-12-04T03:10:34.701Z,24.60
2022-12-04T03:13:13.207Z,24.10
2022-12-04T03:15:43.144Z,26.10
2022-12-04T03:18:26.414Z,25.40
2022-12-04T03:21:02.266Z,24.90
2022-12-04T03:23:35.384Z,24.70
2022-12-04T03:26:20.795Z,26.60
2022-12-04T03:29:25.948Z,23.20
2022-12-04T03:32:13.540Z,23.80
2022-12-04T03:35:02.277Z,22.10
2022-12-04T03:37:47.599Z,22.90
2022-12-04T03:40:28.327Z,25.80
2022-12-04T03:43:19.820Z,23.80
2022-12-04T03:45:59.509Z,20.40
2022-12-04T03:48:38.011Z,25.20
2022-12-04T03:51:14.756Z,24.60
2022-12-04T03:53:45.065Z,20.40
2022-12-04T03:56:16.893Z,24.20
2022-12-04T03:58:50.974Z,21.40
2022-12-04T04:01:22.648Z,24.50
2022-12-04T04:03:53.361Z,23.60
2022-12-04T04:06:27.621Z,24.20
2022-12-04T04:08:58.511Z,23.40
2022-12-04T04:11:33.990Z,26.00
2022-12-04T04:14:29.609Z,24.10
2022-12-04T04:17:23.578Z,23.40
2022-12-04T04:20:16.513Z,21.40
2022-12-04T04:23:06.400Z,23.30
2022-12-04T04:25:38.202Z,21.00
2022-12-04T04:28:05.359Z,24.20
2022-12-04T04:30:33.646Z,24.40
2022-12-04T04:33:11.230Z,23.60
2022-12-04T04:35:38.127Z,23.60
2022-12-04T04:38:04.949Z,24.50
2022-12-04T04:40:41.677Z,23.20
2022-12-04T04:43:19.544Z,23.10
2022-12-04T04:45:47.772Z,20.70
2022-12-04T04:48:27.242Z,18.90
2022-12-04T04:50:55.026Z,21.10
2022-12-04T04:53:27.944Z,21.20
2022-12-04T04:55:55.824Z,21.70
2022-12-04T04:58:22.825Z,24.50
2022-12-04T05:00:58.824Z,21.00
2022-12-04T05:03:27.240Z,21.00
2022-12-04T05:05:54.326Z,23.90
2022-12-04T05:08:21.763Z,21.90
2022-12-04T05:10:48.764Z,23.60
2022-12-04T05:13:16.448Z,23.80
2022-12-04T05:15:43.813Z,19.40
2022-12-04T05:18:11.165Z,24.90
2022-12-04T05:20:39.154Z,25.00
2022-12-04T05:23:06.848Z,26.00
2022-12-04T05:25:33.868Z,23.40
2022-12-04T05:28:00.805Z,22.20
2022-12-04T05:30:27.720Z,26.10
2022-12-04T05:32:54.725Z,21.60
2022-12-04T05:35:21.597Z,23.40
2022-12-04T05:37:48.535Z,22.50
2022-12-04T05:40:15.637Z,22.10
2022-12-04T05:42:42.542Z,19.90
2022-12-04T05:45:09.891Z,20.10
2022-12-04T05:47:43.938Z,19.60
2022-12-04T05:50:13.196Z,22.80
2022-12-04T05:52:40.145Z,21.50
2022-12-04T05:55:07.386Z,22.10
2022-12-04T05:57:34.349Z,21.50
2022-12-04T06:00:01.309Z,23.10
2022-12-04T06:02:28.310Z,21.80
2022-12-04T06:04:55.650Z,21.30
2022-12-04T06:07:22.582Z,20.50
2022-12-04T06:09:49.452Z,21.60
2022-12-04T06:12:16.378Z,17.90
2022-12-04T06:14:43.300Z,19.70
2022-12-04T06:17:10.187Z,23.60
2022-12-04T06:19:37.228Z,22.80
2022-12-04T06:22:04.275Z,23.20
2022-12-04T06:24:31.200Z,23.80
2022-12-04T06:29:45.917Z,21.60
2022-12-04T06:32:16.492Z,20.10
2022-12-04T06:34:50.901Z,22.20
2022-12-04T06:37:17.937Z,21.00
2022-12-04T06:39:44.976Z,21.90
2022-12-04T06:42:12.420Z,20.20
2022-12-04T06:44:39.332Z,21.60
2022-12-04T06:47:06.240Z,19.10
2022-12-04T06:49:33.192Z,20.90
2022-12-04T06:52:00.449Z,20.70
2022-12-04T06:54:27.316Z,19.80
2022-12-04T06:56:54.268Z,27.90
2022-12-04T06:59:21.180Z,21.40
2022-12-04T07:01:48.211Z,24.00
2022-12-04T07:04:15.285Z,20.70
2022-12-04T07:06:42.815Z,17.70
2022-12-04T07:09:15.126Z,20.80
2022-12-04T07:11:43.639Z,20.30
2022-12-04T07:14:11.721Z,19.90
2022-12-04T07:16:41.532Z,19.50
2022-12-04T07:19:11.187Z,18.20
2022-12-04T07:21:38.537Z,23.40
2022-12-04T07:24:05.805Z,21.00
2022-12-04T07:26:33.064Z,20.70
2022-12-04T07:29:00.284Z,18.50
2022-12-04T07:31:28.928Z,17.80
2022-12-04T07:33:57.429Z,20.60
2022-12-04T07:36:25.708Z,18.30
2022-12-04T07:38:56.372Z,26.60
2022-12-04T07:41:23.814Z,25.40
2022-12-04T07:43:50.820Z,31.80
2022-12-04T07:46:21.036Z,28.30
2022-12-04T07:48:48.058Z,22.20
2022-12-04T07:51:21.026Z,17.30
2022-12-04T07:53:49.096Z,18.10
2022-12-04T07:56:16.885Z,17.20
2022-12-04T07:58:43.892Z,22.40
2022-12-04T08:01:10.976Z,24.70
2022-12-04T08:03:43.559Z,22.00
2022-12-04T08:06:14.239Z,17.10
2022-12-04T08:08:41.539Z,17.80
2022-12-04T08:11:11.158Z,18.20
2022-12-04T08:13:38.184Z,17.60
2022-12-04T08:16:07.270Z,16.90
2022-12-04T08:18:34.700Z,15.30
2022-12-04T08:21:13.740Z,18.40
2022-12-04T08:23:42.637Z,20.40
2022-12-04T08:26:10.567Z,15.50
2022-12-04T08:28:38.362Z,17.10
2022-12-04T08:31:09.924Z,15.40
2022-12-04T08:33:37.215Z,16.90
2022-12-04T08:36:09.801Z,16.40
2022-12-04T08:38:37.450Z,17.30
2022-12-04T08:41:07.493Z,16.30
2022-12-04T08:46:04.401Z,15.10
2022-12-04T08:48:32.368Z,17.70
2022-12-04T08:51:01.102Z,17.30
2022-12-04T08:53:28.049Z,23.50
2022-12-04T08:55:55.006Z,17.30
2022-12-04T08:58:22.727Z,16.40
2022-12-04T09:00:49.869Z,19.50
2022-12-04T09:03:19.163Z,25.40
2022-12-04T09:05:46.175Z,20.80
2022-12-04T09:08:14.591Z,26.60
2022-12-04T09:10:42.696Z,22.70
2022-12-04T09:13:09.846Z,17.90
2022-12-04T09:15:40.358Z,19.70
2022-12-04T09:18:09.023Z,28.10
2022-12-04T09:20:36.813Z,31.00
2022-12-04T09:23:05.664Z,20.50
2022-12-04T09:25:37.266Z,70.50
2022-12-04T09:28:04.504Z,89.40
2022-12-04T09:30:31.495Z,76.20
2022-12-04T09:32:58.572Z,63.70
2022-12-04T09:35:25.468Z,41.80
2022-12-04T09:37:52.444Z,43.80
2022-12-04T09:40:35.506Z,38.60
2022-12-04T09:43:43.735Z,39.30
2022-12-04T09:46:25.873Z,33.00
2022-12-04T09:48:56.272Z,30.70
2022-12-04T09:51:25.741Z,34.40
2022-12-04T09:53:58.871Z,25.90
2022-12-04T09:56:30.010Z,31.70
2022-12-04T09:59:05.476Z,24.90
2022-12-04T10:01:51.320Z,21.60
2022-12-04T10:04:18.985Z,20.80
2022-12-04T10:07:19.141Z,24.70
2022-12-04T10:12:18.836Z,29.80
2022-12-04T10:15:04.044Z,22.80
2022-12-04T10:17:47.640Z,24.70
2022-12-04T10:21:06.159Z,24.40
2022-12-04T10:24:12.921Z,25.10
2022-12-04T10:26:45.336Z,25.90
2022-12-04T10:29:20.997Z,23.90
2022-12-04T10:31:50.388Z,31.10
2022-12-04T10:34:26.023Z,27.30
2022-12-04T10:36:58.484Z,26.30
2022-12-04T10:39:34.938Z,27.70
2022-12-04T10:42:47.134Z,18.90
2022-12-04T10:45:14.259Z,22.20
2022-12-04T10:47:45.180Z,23.70
2022-12-04T10:50:23.736Z,27.00
2022-12-04T10:52:51.346Z,30.90
2022-12-04T10:55:29.415Z,23.70
2022-12-04T10:57:56.545Z,24.80
2022-12-04T11:00:33.857Z,22.80
2022-12-04T11:03:03.799Z,27.90
2022-12-04T11:06:01.821Z,31.40
2022-12-04T11:08:50.209Z,26.10
2022-12-04T11:11:25.103Z,22.70
2022-12-04T11:14:24.602Z,30.10
2022-12-04T11:17:03.844Z,29.60
2022-12-04T11:19:34.369Z,32.70
2022-12-04T11:22:30.964Z,30.30
2022-12-04T11:24:59.664Z,30.80
2022-12-04T11:27:33.117Z,28.10
2022-12-04T11:30:16.003Z,30.10
2022-12-04T11:32:44.874Z,22.90
2022-12-04T11:35:24.142Z,33.80
2022-12-04T11:37:58.104Z,26.60
2022-12-04T11:40:26.378Z,33.10
2022-12-04T11:43:05.238Z,30.30
2022-12-04T11:45:32.713Z,26.40
2022-12-04T11:48:03.280Z,31.30
2022-12-04T11:50:36.395Z,27.70
2022-12-04T11:53:18.627Z,25.10
2022-12-04T11:56:04.327Z,33.30
2022-12-04T11:59:07.998Z,22.40
2022-12-04T12:01:44.157Z,22.80
2022-12-04T12:04:32.449Z,20.50
2022-12-04T12:07:16.519Z,24.70
2022-12-04T12:09:57.010Z,28.20
2022-12-04T12:12:36.456Z,25.70
2022-12-04T12:15:25.418Z,39.10
2022-12-04T12:18:24.783Z,41.40
2022-12-04T12:20:58.506Z,36.70
2022-12-04T12:23:40.288Z,23.90
2022-12-04T12:26:18.608Z,25.70
2022-12-04T12:29:09.697Z,30.80
2022-12-04T12:32:05.956Z,27.00
2022-12-04T12:34:44.228Z,26.80
2022-12-04T12:37:23.389Z,23.70
2022-12-04T12:39:55.501Z,27.20
2022-12-04T12:42:35.890Z,24.10
2022-12-04T12:45:38.199Z,24.40
2022-12-04T12:48:21.863Z,20.80
2022-12-04T12:51:14.993Z,25.20
2022-12-04T12:53:53.009Z,22.30
2022-12-04T12:56:30.783Z,23.60
2022-12-04T12:59:03.115Z,23.90
2022-12-04T13:01:41.370Z,22.80
2022-12-04T13:04:15.569Z,23.30
2022-12-04T13:06:43.922Z,25.50
2022-12-04T13:09:32.255Z,27.80
2022-12-04T13:12:05.850Z,25.60
2022-12-04T13:14:32.882Z,22.20
2022-12-04T13:17:34.575Z,25.10
2022-12-04T13:20:10.148Z,23.60
2022-12-04T13:22:52.873Z,22.20
2022-12-04T13:25:36.098Z,23.60
2022-12-04T13:28:25.220Z,23.00
2022-12-04T13:31:07.550Z,19.20
2022-12-04T13:34:28.748Z,24.80
2022-12-04T13:37:01.489Z,23.60
2022-12-04T13:40:11.351Z,19.90
2022-12-04T13:42:41.091Z,20.60
2022-12-04T13:45:24.317Z,21.40
2022-12-04T13:48:05.773Z,21.80
2022-12-04T13:50:35.219Z,22.40
2022-12-04T13:53:02.607Z,23.00
2022-12-04T13:55:39.580Z,26.00
2022-12-04T13:58:12.572Z,27.90
2022-12-04T14:00:43.754Z,20.80
2022-12-04T14:03:34.375Z,21.20
2022-12-04T14:06:07.121Z,21.70
2022-12-04T14:08:43.413Z,21.70
2022-12-04T14:11:16.151Z,24.70
2022-12-04T14:13:43.192Z,22.60
2022-12-04T14:16:29.136Z,20.30
2022-12-04T14:18:59.256Z,23.60
2022-12-04T14:21:41.450Z,23.70
2022-12-04T14:24:31.318Z,24.30
2022-12-04T14:27:14.070Z,22.10
2022-12-04T14:29:49.017Z,22.80
2022-12-04T14:32:24.358Z,20.70
2022-12-04T14:34:53.542Z,21.80
2022-12-04T14:37:30.018Z,21.20
2022-12-04T14:39:59.620Z,21.20
2022-12-04T14:42:34.396Z,20.30
2022-12-04T14:45:05.624Z,19.40
2022-12-04T14:47:43.694Z,19.70
2022-12-04T14:50:24.072Z,21.40
2022-12-04T14:53:06.380Z,18.50
2022-12-04T14:55:55.846Z,18.60
2022-12-04T14:58:34.105Z,18.20
2022-12-04T15:01:02.854Z,18.10
2022-12-04T15:03:35.294Z,18.60
2022-12-04T15:06:06.473Z,18.30
2022-12-04T15:08:34.672Z,18.70
2022-12-04T15:11:24.239Z,18.30
2022-12-04T15:13:51.262Z,16.50
2022-12-04T15:16:21.248Z,19.10
2022-12-04T15:21:38.484Z,17.20
2022-12-04T15:26:55.545Z,17.70
2022-12-04T15:29:27.185Z,21.90
2022-12-04T15:31:58.613Z,20.00
2022-12-04T15:34:45.513Z,21.30
2022-12-04T15:37:19.812Z,17.30
2022-12-04T15:39:47.765Z,19.80
2022-12-04T15:42:25.934Z,18.30
2022-12-04T15:45:08.221Z,18.00
2022-12-04T15:47:53.024Z,16.90
2022-12-04T15:50:26.458Z,20.60
2022-12-04T15:53:05.688Z,18.50
2022-12-04T15:55:47.998Z,21.00
2022-12-04T15:58:22.544Z,20.10
2022-12-04T16:01:14.090Z,22.30
2022-12-04T16:03:41.536Z,22.50
2022-12-04T16:06:28.892Z,21.50
2022-12-04T16:09:11.736Z,21.20
2022-12-04T16:11:40.478Z,19.90
2022-12-04T16:14:07.352Z,20.30
2022-12-04T16:16:37.076Z,17.80
2022-12-04T16:19:14.178Z,18.70
2022-12-04T16:21:43.781Z,17.00
2022-12-04T16:24:13.306Z,18.70
2022-12-04T16:26:41.005Z,17.40
2022-12-04T16:29:08.126Z,19.20
2022-12-04T16:31:37.361Z,19.80
2022-12-04T16:34:04.437Z,19.30
2022-12-04T16:36:32.017Z,15.60
2022-12-04T16:38:59.336Z,21.60
2022-12-04T16:41:26.619Z,27.30
2022-12-04T16:43:56.199Z,25.50
2022-12-04T16:46:25.405Z,23.30
2022-12-04T16:48:52.770Z,19.80
2022-12-04T16:51:25.424Z,20.20
2022-12-04T16:53:53.862Z,19.20
2022-12-04T16:56:21.973Z,19.70
2022-12-04T16:58:49.222Z,21.30
2022-12-04T17:01:28.034Z,20.10
2022-12-04T17:03:55.170Z,18.00
2022-12-04T17:06:22.173Z,22.10
2022-12-04T17:08:49.611Z,19.60
2022-12-04T17:11:17.675Z,19.60
2022-12-04T17:13:45.323Z,21.60
2022-12-04T17:16:14.968Z,21.20
2022-12-04T17:21:11.804Z,22.50
2022-12-04T17:23:39.563Z,22.10
2022-12-04T17:26:12.855Z,19.80
2022-12-04T17:28:40.747Z,21.20
2022-12-04T17:31:20.107Z,19.90
2022-12-04T17:33:49.855Z,20.70
2022-12-04T17:36:23.071Z,24.70
2022-12-04T17:38:55.382Z,22.90
2022-12-04T17:41:23.013Z,21.00
2022-12-04T17:43:50.089Z,24.00
2022-12-04T17:46:21.086Z,23.00
2022-12-04T17:48:48.791Z,22.30
2022-12-04T17:51:18.937Z,21.50
2022-12-04T17:53:46.535Z,21.50
2022-12-04T17:56:16.902Z,20.20
2022-12-04T17:58:44.803Z,20.10
2022-12-04T18:01:17.741Z,23.30
2022-12-04T18:03:50.043Z,21.90
2022-12-04T18:06:24.083Z,21.00
2022-12-04T18:08:52.282Z,19.70
2022-12-04T18:11:21.260Z,19.10
2022-12-04T18:13:53.258Z,19.40
2022-12-04T18:16:20.387Z,19.40
2022-12-04T18:18:47.472Z,19.20
2022-12-04T18:21:14.990Z,17.20
2022-12-04T18:23:45.320Z,18.60
2022-12-04T18:26:18.168Z,18.60
2022-12-04T18:28:46.405Z,18.60
2022-12-04T18:31:14.883Z,18.00
2022-12-04T18:33:42.942Z,18.90
2022-12-04T18:36:18.710Z,19.10
2022-12-04T18:38:46.705Z,20.00
2022-12-04T18:41:14.490Z,21.20
2022-12-04T18:43:45.004Z,21.40
2022-12-04T18:46:14.330Z,20.30
2022-12-04T18:48:43.005Z,20.70
2022-12-04T18:51:15.496Z,18.80
2022-12-04T18:53:45.668Z,18.30
2022-12-04T18:56:12.947Z,23.50
2022-12-04T18:58:40.452Z,23.80
2022-12-04T19:01:13.395Z,26.70
2022-12-04T19:03:40.740Z,20.50
2022-12-04T19:06:08.406Z,18.70
2022-12-04T19:08:40.008Z,19.70
2022-12-04T19:11:15.206Z,17.80
2022-12-04T19:13:42.646Z,16.90
2022-12-04T19:16:12.198Z,16.00
2022-12-04T19:18:39.453Z,18.60
2022-12-04T19:21:06.893Z,19.80
2022-12-04T19:23:34.206Z,19.40
2022-12-04T19:26:01.690Z,19.80
2022-12-04T19:28:29.277Z,18.90
2022-12-04T19:30:56.426Z,20.10
2022-12-04T19:33:24.567Z,19.90
2022-12-04T19:36:04.032Z,19.90
2022-12-04T19:38:32.276Z,18.60
2022-12-04T19:41:08.768Z,18.60
2022-12-04T19:43:37.954Z,18.60
2022-12-04T19:46:06.147Z,19.70
2022-12-04T19:48:34.148Z,21.10
2022-12-04T19:51:14.428Z,20.40
2022-12-04T19:53:42.129Z,20.10
2022-12-04T19:56:21.852Z,20.30
2022-12-04T19:58:48.859Z,19.20
2022-12-04T20:01:18.632Z,20.20
2022-12-04T20:03:46.044Z,19.50
2022-12-04T20:06:16.072Z,18.60
2022-12-04T20:11:16.480Z,18.80
2022-12-04T20:13:45.738Z,18.20
2022-12-04T20:16:18.038Z,18.20
2022-12-04T20:18:48.425Z,18.80
2022-12-04T20:21:15.907Z,20.40
2022-12-04T20:23:49.303Z,18.90
2022-12-04T20:26:22.278Z,18.30
2022-12-04T20:28:54.048Z,18.80
2022-12-04T20:31:24.940Z,19.50
2022-12-04T20:33:54.168Z,19.30
2022-12-04T20:36:23.273Z,19.80
2022-12-04T20:38:54.822Z,18.90
2022-12-04T20:41:21.974Z,20.20
2022-12-04T20:43:49.125Z,25.10
2022-12-04T20:46:21.774Z,20.40
2022-12-04T20:48:50.040Z,18.80
2022-12-04T20:51:26.191Z,18.90
2022-12-04T20:53:54.550Z,19.80
2022-12-04T20:56:23.162Z,19.20
2022-12-04T20:58:50.061Z,18.80
2022-12-04T21:01:20.507Z,18.60
2022-12-04T21:03:47.437Z,19.90
2022-12-04T21:06:19.212Z,19.40
2022-12-04T21:08:53.224Z,19.40
2022-12-04T21:11:21.320Z,19.30
2022-12-04T21:14:06.748Z,18.80
2022-12-04T21:16:34.267Z,19.50
2022-12-04T21:19:05.757Z,19.40
2022-12-04T21:21:34.780Z,18.20
2022-12-04T21:24:02.890Z,17.90
2022-12-04T21:26:30.792Z,19.10
2022-12-04T21:28:58.177Z,18.90
2022-12-04T21:31:29.351Z,19.30
2022-12-04T21:33:58.699Z,19.00
2022-12-04T21:36:26.773Z,19.80
2022-12-04T21:38:54.452Z,20.00
2022-12-04T21:41:41.998Z,20.10
2022-12-04T21:44:12.299Z,18.30
2022-12-04T21:46:39.427Z,18.80
2022-12-04T21:49:07.334Z,18.10
2022-12-04T21:54:22.270Z,18.20
2022-12-04T21:56:49.221Z,17.50
2022-12-04T21:59:16.165Z,17.30
2022-12-04T22:01:43.238Z,17.00
2022-12-04T22:04:10.293Z,17.40
2022-12-04T22:06:37.421Z,17.60
2022-12-04T22:09:10.039Z,16.50
2022-12-04T22:11:38.420Z,17.50
2022-12-04T22:14:05.305Z,17.30
2022-12-04T22:16:35.711Z,17.40
2022-12-04T22:19:05.424Z,18.00
2022-12-04T22:21:32.382Z,16.20
2022-12-04T22:24:01.269Z,19.10
2022-12-04T22:26:29.590Z,19.10
2022-12-04T22:28:59.307Z,18.90
2022-12-04T22:31:28.177Z,21.50
2022-12-04T22:33:57.887Z,18.40
2022-12-04T22:36:28.257Z,17.80
2022-12-04T22:39:11.391Z,17.10
2022-12-04T22:41:38.777Z,17.30
2022-12-04T22:44:06.226Z,16.30
2022-12-04T22:46:33.854Z,14.70
2022-12-04T22:49:01.181Z,17.80
2022-12-04T22:51:31.183Z,15.80
2022-12-04T22:53:58.226Z,16.50
2022-12-04T22:56:27.832Z,17.60
2022-12-04T22:58:55.909Z,15.70
2022-12-04T23:01:31.546Z,15.80
2022-12-04T23:04:00.542Z,16.30
2022-12-04T23:06:30.161Z,16.70
2022-12-04T23:09:01.262Z,17.30
2022-12-04T23:11:28.823Z,16.40
2022-12-04T23:13:59.648Z,16.60
2022-12-04T23:16:29.277Z,15.50
2022-12-04T23:18:56.626Z,17.00
2022-12-04T23:21:24.332Z,15.80
2022-12-04T23:23:52.990Z,17.40
2022-12-04T23:26:23.392Z,16.00
2022-12-04T23:28:50.607Z,16.50
2022-12-04T23:31:17.936Z,16.20
2022-12-04T23:33:44.961Z,16.70
2022-12-04T23:36:13.607Z,16.30
2022-12-04T23:38:42.970Z,16.50
2022-12-04T23:41:19.301Z,16.40
2022-12-04T23:43:47.511Z,16.00
2022-12-04T23:46:18.259Z,16.90
2022-12-04T23:48:45.638Z,16.90
2022-12-04T23:51:15.682Z,16.10
2022-12-04T23:53:42.877Z,15.00
2022-12-04T23:56:16.185Z,16.40
2022-12-04T23:58:45.331Z,16.40
